sensor_id;sensor_type;location;lat;lon;timestamp;pressure;altitude;pressure_sealevel;temperature;humidity
6567;BME280;3317;43.994;22.878;2022-08-04T00:01:23;100848.88;;;29.63;37.75
6567;BME280;3317;43.994;22.878;2022-08-04T00:03:58;100850.56;;;29.59;38.26
6567;BME280;3317;43.994;22.878;2022-08-04T00:06:37;100846.13;;;29.53;38.43
6567;BME280;3317;43.994;22.878;2022-08-04T00:09:09;100847.78;;;29.44;38.47
6567;BME280;3317;43.994;22.878;2022-08-04T00:11:44;100847.78;;;29.44;37.70
6567;BME280;3317;43.994;22.878;2022-08-04T00:14:13;100847.72;;;29.38;37.99
6567;BME280;3317;43.994;22.878;2022-08-04T00:16:42;100844.97;;;29.28;37.85
6567;BME280;3317;43.994;22.878;2022-08-04T00:19:11;100837.69;;;29.22;38.49
6567;BME280;3317;43.994;22.878;2022-08-04T00:21:50;100850.53;;;29.28;38.32
6567;BME280;3317;43.994;22.878;2022-08-04T00:24:18;100854.97;;;29.24;38.13
6567;BME280;3317;43.994;22.878;2022-08-04T00:26:47;100855.53;;;29.21;38.30
6567;BME280;3317;43.994;22.878;2022-08-04T00:29:15;100845.50;;;29.20;37.90
6567;BME280;3317;43.994;22.878;2022-08-04T00:31:42;100853.88;;;29.15;38.60
6567;BME280;3317;43.994;22.878;2022-08-04T00:34:11;100849.66;;;29.07;38.56
6567;BME280;3317;43.994;22.878;2022-08-04T00:36:42;100791.84;;;28.66;37.96
6567;BME280;3317;43.994;22.878;2022-08-04T00:39:11;100851.63;;;29.06;37.65
6567;BME280;3317;43.994;22.878;2022-08-04T00:41:46;100856.34;;;29.06;38.30
6567;BME280;3317;43.994;22.878;2022-08-04T00:44:27;100863.91;;;29.05;37.69
6567;BME280;3317;43.994;22.878;2022-08-04T00:47:18;100869.47;;;29.05;37.63
6567;BME280;3317;43.994;22.878;2022-08-04T00:50:03;100868.91;;;29.03;37.88
6567;BME280;3317;43.994;22.878;2022-08-04T00:53:05;100861.63;;;28.97;37.03
6567;BME280;3317;43.994;22.878;2022-08-04T00:55:53;100867.78;;;28.99;37.16
6567;BME280;3317;43.994;22.878;2022-08-04T00:58:41;100869.44;;;28.95;38.34
6567;BME280;3317;43.994;22.878;2022-08-04T01:01:21;100871.94;;;28.91;38.38
6567;BME280;3317;43.994;22.878;2022-08-04T01:04:02;100872.50;;;28.88;38.49
6567;BME280;3317;43.994;22.878;2022-08-04T01:06:38;100875.00;;;28.85;38.61
6567;BME280;3317;43.994;22.878;2022-08-04T01:09:20;100876.63;;;28.80;38.87
6567;BME280;3317;43.994;22.878;2022-08-04T01:12:01;100877.44;;;28.76;39.06
6567;BME280;3317;43.994;22.878;2022-08-04T01:14:46;100865.72;;;28.69;38.80
6567;BME280;3317;43.994;22.878;2022-08-04T01:17:19;100887.72;;;28.70;39.24
6567;BME280;3317;43.994;22.878;2022-08-04T01:20:02;100876.88;;;28.69;39.28
6567;BME280;3317;43.994;22.878;2022-08-04T01:22:57;100868.19;;;28.60;39.41
6567;BME280;3317;43.994;22.878;2022-08-04T01:25:51;100871.56;;;28.62;39.23
6567;BME280;3317;43.994;22.878;2022-08-04T01:28:40;100881.00;;;28.61;39.54
6567;BME280;3317;43.994;22.878;2022-08-04T01:31:20;100868.44;;;28.53;38.97
6567;BME280;3317;43.994;22.878;2022-08-04T01:33:56;100873.75;;;28.55;38.66
6567;BME280;3317;43.994;22.878;2022-08-04T01:36:27;100881.28;;;28.59;39.29
6567;BME280;3317;43.994;22.878;2022-08-04T01:38:59;100878.75;;;28.58;38.98
6567;BME280;3317;43.994;22.878;2022-08-04T01:41:50;100889.34;;;28.50;39.37
6567;BME280;3317;43.994;22.878;2022-08-04T01:44:17;100895.47;;;28.52;39.47
6567;BME280;3317;43.994;22.878;2022-08-04T01:46:49;100892.13;;;28.50;39.52
6567;BME280;3317;43.994;22.878;2022-08-04T01:49:19;100894.31;;;28.48;39.56
6567;BME280;3317;43.994;22.878;2022-08-04T01:51:49;100882.59;;;28.41;39.22
6567;BME280;3317;43.994;22.878;2022-08-04T01:54:17;100887.06;;;28.47;39.07
6567;BME280;3317;43.994;22.878;2022-08-04T01:56:48;100892.38;;;28.49;38.02
6567;BME280;3317;43.994;22.878;2022-08-04T01:59:18;100888.75;;;28.48;38.69
6567;BME280;3317;43.994;22.878;2022-08-04T02:01:47;100873.13;;;28.37;39.06
6567;BME280;3317;43.994;22.878;2022-08-04T02:04:15;100887.38;;;28.46;39.30
6567;BME280;3317;43.994;22.878;2022-08-04T02:07:00;100882.03;;;28.44;39.11
6567;BME280;3317;43.994;22.878;2022-08-04T02:09:34;100884.53;;;28.41;38.66
6567;BME280;3317;43.994;22.878;2022-08-04T02:12:08;100887.59;;;28.39;38.99
6567;BME280;3317;43.994;22.878;2022-08-04T02:14:43;100872.25;;;28.31;38.57
6567;BME280;3317;43.994;22.878;2022-08-04T02:17:13;100880.56;;;28.26;39.57
6567;BME280;3317;43.994;22.878;2022-08-04T02:19:56;100883.41;;;28.31;39.62
6567;BME280;3317;43.994;22.878;2022-08-04T02:22:31;100887.56;;;28.29;39.87
6567;BME280;3317;43.994;22.878;2022-08-04T02:25:04;100889.22;;;28.24;39.83
6567;BME280;3317;43.994;22.878;2022-08-04T02:30:39;100895.84;;;28.18;39.02
6567;BME280;3317;43.994;22.878;2022-08-04T02:33:12;100898.28;;;28.15;40.03
6567;BME280;3317;43.994;22.878;2022-08-04T02:35:44;100897.72;;;28.13;39.29
6567;BME280;3317;43.994;22.878;2022-08-04T02:38:26;100897.16;;;28.10;39.16
6567;BME280;3317;43.994;22.878;2022-08-04T02:41:00;100891.28;;;28.07;39.76
6567;BME280;3317;43.994;22.878;2022-08-04T02:43:28;100893.50;;;28.05;39.10
6567;BME280;3317;43.994;22.878;2022-08-04T02:45:59;100896.81;;;28.02;39.42
6567;BME280;3317;43.994;22.878;2022-08-04T02:48:31;100897.09;;;28.00;39.25
6567;BME280;3317;43.994;22.878;2022-08-04T02:51:02;100896.78;;;27.96;39.97
6567;BME280;3317;43.994;22.878;2022-08-04T02:53:29;100891.19;;;27.91;40.56
6567;BME280;3317;43.994;22.878;2022-08-04T02:55:59;100891.72;;;27.88;39.75
6567;BME280;3317;43.994;22.878;2022-08-04T02:58:30;100890.28;;;27.86;39.71
6567;BME280;3317;43.994;22.878;2022-08-04T03:01:01;100897.22;;;27.83;39.74
6567;BME280;3317;43.994;22.878;2022-08-04T03:03:36;100888.59;;;27.79;40.29
6567;BME280;3317;43.994;22.878;2022-08-04T03:06:38;100883.53;;;27.76;41.11
6567;BME280;3317;43.994;22.878;2022-08-04T03:15:39;100906.84;;;27.65;40.78
6567;BME280;3317;43.994;22.878;2022-08-04T03:18:42;100904.31;;;27.63;40.97
6567;BME280;3317;43.994;22.878;2022-08-04T03:25:02;100903.97;;;27.54;41.07
6567;BME280;3317;43.994;22.878;2022-08-04T03:27:57;100904.22;;;27.53;41.25
6567;BME280;3317;43.994;22.878;2022-08-04T03:30:37;100909.19;;;27.51;40.67
6567;BME280;3317;43.994;22.878;2022-08-04T03:33:36;100914.19;;;27.49;41.73
6567;BME280;3317;43.994;22.878;2022-08-04T03:48:48;100914.81;;;27.29;41.57
6567;BME280;3317;43.994;22.878;2022-08-04T03:51:29;100915.06;;;27.27;41.90
6567;BME280;3317;43.994;22.878;2022-08-04T03:57:42;100929.19;;;27.20;42.06
6567;BME280;3317;43.994;22.878;2022-08-04T04:00:14;100925.25;;;27.16;41.85
6567;BME280;3317;43.994;22.878;2022-08-04T04:03:20;100934.97;;;27.13;42.26
6567;BME280;3317;43.994;22.878;2022-08-04T04:12:06;100948.75;;;27.03;42.56
6567;BME280;3317;43.994;22.878;2022-08-04T04:17:49;100957.63;;;27.00;43.28
6567;BME280;3317;43.994;22.878;2022-08-04T04:20:34;100947.94;;;26.85;43.19
6567;BME280;3317;43.994;22.878;2022-08-04T04:23:20;100962.03;;;26.96;42.34
6567;BME280;3317;43.994;22.878;2022-08-04T04:26:03;100974.81;;;26.97;43.22
6567;BME280;3317;43.994;22.878;2022-08-04T04:28:51;100968.72;;;27.00;42.89
6567;BME280;3317;43.994;22.878;2022-08-04T04:31:33;100970.16;;;27.03;43.10
6567;BME280;3317;43.994;22.878;2022-08-04T04:34:11;100966.81;;;27.01;43.83
6567;BME280;3317;43.994;22.878;2022-08-04T04:36:57;100964.94;;;27.06;43.73
6567;BME280;3317;43.994;22.878;2022-08-04T04:39:35;100973.91;;;27.13;42.39
6567;BME280;3317;43.994;22.878;2022-08-04T04:42:27;100977.25;;;27.16;43.38
6567;BME280;3317;43.994;22.878;2022-08-04T04:45:17;100968.28;;;27.08;43.63
6567;BME280;3317;43.994;22.878;2022-08-04T04:47:54;100978.38;;;27.15;43.33
6567;BME280;3317;43.994;22.878;2022-08-04T04:50:30;100985.94;;;27.19;43.96
6567;BME280;3317;43.994;22.878;2022-08-04T04:53:06;100988.47;;;27.21;43.57
6567;BME280;3317;43.994;22.878;2022-08-04T04:55:43;100994.31;;;27.24;42.87
6567;BME280;3317;43.994;22.878;2022-08-04T04:58:13;100943.97;;;26.98;43.04
6567;BME280;3317;43.994;22.878;2022-08-04T05:01:04;100994.97;;;27.32;43.32
6567;BME280;3317;43.994;22.878;2022-08-04T05:03:48;100988.56;;;27.31;43.73
6567;BME280;3317;43.994;22.878;2022-08-04T05:06:44;100994.19;;;27.36;44.16
6567;BME280;3317;43.994;22.878;2022-08-04T05:09:25;101009.06;;;27.47;44.20
6567;BME280;3317;43.994;22.878;2022-08-04T05:12:36;101009.97;;;27.53;43.98
6567;BME280;3317;43.994;22.878;2022-08-04T05:15:11;100999.91;;;27.52;43.46
6567;BME280;3317;43.994;22.878;2022-08-04T05:17:48;101006.16;;;27.59;43.58
6567;BME280;3317;43.994;22.878;2022-08-04T05:20:21;101007.34;;;27.68;43.54
6567;BME280;3317;43.994;22.878;2022-08-04T05:22:54;100999.00;;;27.68;43.49
6567;BME280;3317;43.994;22.878;2022-08-04T05:25:24;101001.09;;;27.83;43.27
6567;BME280;3317;43.994;22.878;2022-08-04T05:27:56;100997.84;;;27.92;43.19
6567;BME280;3317;43.994;22.878;2022-08-04T05:30:27;101010.53;;;28.10;42.60
6567;BME280;3317;43.994;22.878;2022-08-04T05:32:59;101015.94;;;28.22;42.22
6567;BME280;3317;43.994;22.878;2022-08-04T05:35:32;101017.41;;;28.35;41.49
6567;BME280;3317;43.994;22.878;2022-08-04T05:38:02;101020.59;;;28.49;40.89
6567;BME280;3317;43.994;22.878;2022-08-04T05:40:31;101005.88;;;28.59;40.95
6567;BME280;3317;43.994;22.878;2022-08-04T05:43:00;101018.84;;;28.80;40.77
6567;BME280;3317;43.994;22.878;2022-08-04T05:45:27;101020.06;;;28.95;39.99
6567;BME280;3317;43.994;22.878;2022-08-04T05:47:55;101019.00;;;29.12;38.65
6567;BME280;3317;43.994;22.878;2022-08-04T05:50:23;101027.66;;;29.10;35.76
6567;BME280;3317;43.994;22.878;2022-08-04T05:52:52;101031.25;;;29.05;34.79
6567;BME280;3317;43.994;22.878;2022-08-04T05:55:24;101022.91;;;29.05;35.10
6567;BME280;3317;43.994;22.878;2022-08-04T05:57:54;100994.00;;;28.79;34.58
6567;BME280;3317;43.994;22.878;2022-08-04T06:00:23;101042.38;;;28.95;34.80
6567;BME280;3317;43.994;22.878;2022-08-04T06:02:51;101029.56;;;28.99;35.12
6567;BME280;3317;43.994;22.878;2022-08-04T06:05:21;101031.28;;;29.11;34.96
6567;BME280;3317;43.994;22.878;2022-08-04T06:07:49;101026.00;;;29.09;35.13
6567;BME280;3317;43.994;22.878;2022-08-04T06:10:16;101025.19;;;29.14;35.90
6567;BME280;3317;43.994;22.878;2022-08-04T06:12:54;101030.25;;;29.32;35.46
6567;BME280;3317;43.994;22.878;2022-08-04T06:15:30;101032.00;;;29.49;34.94
6567;BME280;3317;43.994;22.878;2022-08-04T06:18:02;101022.50;;;29.45;34.35
6567;BME280;3317;43.994;22.878;2022-08-04T06:20:35;101027.00;;;29.61;34.85
6567;BME280;3317;43.994;22.878;2022-08-04T06:23:07;101030.13;;;29.75;34.07
6567;BME280;3317;43.994;22.878;2022-08-04T06:25:38;101024.81;;;29.89;33.97
6567;BME280;3317;43.994;22.878;2022-08-04T06:28:09;101017.28;;;29.90;33.94
6567;BME280;3317;43.994;22.878;2022-08-04T06:30:38;101026.78;;;29.89;33.78
6567;BME280;3317;43.994;22.878;2022-08-04T06:33:08;101008.63;;;29.81;33.97
6567;BME280;3317;43.994;22.878;2022-08-04T06:35:49;101015.91;;;29.92;33.94
6567;BME280;3317;43.994;22.878;2022-08-04T06:38:20;101025.13;;;30.19;34.29
6567;BME280;3317;43.994;22.878;2022-08-04T06:40:47;100973.16;;;29.87;33.47
6567;BME280;3317;43.994;22.878;2022-08-04T06:43:17;101023.19;;;30.25;33.32
6567;BME280;3317;43.994;22.878;2022-08-04T06:45:45;101029.06;;;30.28;33.39
6567;BME280;3317;43.994;22.878;2022-08-04T06:48:15;101036.00;;;30.52;33.91
6567;BME280;3317;43.994;22.878;2022-08-04T06:50:44;101018.66;;;30.60;33.43
6567;BME280;3317;43.994;22.878;2022-08-04T06:53:13;101016.72;;;30.55;33.28
6567;BME280;3317;43.994;22.878;2022-08-04T06:55:42;101033.19;;;30.77;32.74
6567;BME280;3317;43.994;22.878;2022-08-04T06:58:10;101018.31;;;30.87;32.87
6567;BME280;3317;43.994;22.878;2022-08-04T07:00:41;101037.31;;;31.01;31.88
6567;BME280;3317;43.994;22.878;2022-08-04T07:03:10;101033.72;;;30.90;31.82
6567;BME280;3317;43.994;22.878;2022-08-04T07:05:37;101034.28;;;30.82;31.94
6567;BME280;3317;43.994;22.878;2022-08-04T07:08:06;101035.13;;;30.87;32.28
6567;BME280;3317;43.994;22.878;2022-08-04T07:10:33;101028.31;;;31.09;32.64
6567;BME280;3317;43.994;22.878;2022-08-04T07:13:01;101039.94;;;31.47;32.09
6567;BME280;3317;43.994;22.878;2022-08-04T07:15:29;101039.47;;;31.80;31.88
6567;BME280;3317;43.994;22.878;2022-08-04T07:17:58;101044.78;;;31.77;31.10
6567;BME280;3317;43.994;22.878;2022-08-04T07:20:29;101032.16;;;31.84;31.08
6567;BME280;3317;43.994;22.878;2022-08-04T07:22:57;101031.72;;;32.07;30.80
6567;BME280;3317;43.994;22.878;2022-08-04T07:25:26;101026.72;;;32.33;31.05
6567;BME280;3317;43.994;22.878;2022-08-04T07:27:53;101034.25;;;32.67;31.24
6567;BME280;3317;43.994;22.878;2022-08-04T07:30:22;101011.03;;;32.91;30.81
6567;BME280;3317;43.994;22.878;2022-08-04T07:32:51;101022.53;;;33.33;30.77
6567;BME280;3317;43.994;22.878;2022-08-04T07:35:22;101032.75;;;33.67;30.90
6567;BME280;3317;43.994;22.878;2022-08-04T07:37:51;101023.22;;;34.21;29.16
6567;BME280;3317;43.994;22.878;2022-08-04T07:40:19;101017.81;;;34.72;28.71
6567;BME280;3317;43.994;22.878;2022-08-04T07:42:46;101016.66;;;35.15;28.15
6567;BME280;3317;43.994;22.878;2022-08-04T07:45:16;101020.41;;;35.24;27.28
6567;BME280;3317;43.994;22.878;2022-08-04T07:47:45;101024.91;;;35.11;27.19
6567;BME280;3317;43.994;22.878;2022-08-04T07:50:13;101028.75;;;35.15;27.70
6567;BME280;3317;43.994;22.878;2022-08-04T07:52:43;101030.94;;;35.32;27.78
6567;BME280;3317;43.994;22.878;2022-08-04T07:55:11;101017.00;;;35.50;27.96
6567;BME280;3317;43.994;22.878;2022-08-04T07:57:39;101025.91;;;35.80;26.92
6567;BME280;3317;43.994;22.878;2022-08-04T08:00:08;101007.53;;;35.83;26.71
6567;BME280;3317;43.994;22.878;2022-08-04T08:02:35;101019.06;;;35.95;26.56
6567;BME280;3317;43.994;22.878;2022-08-04T08:05:04;101026.53;;;36.14;25.82
6567;BME280;3317;43.994;22.878;2022-08-04T08:07:33;100983.84;;;36.06;26.52
6567;BME280;3317;43.994;22.878;2022-08-04T08:10:10;101026.59;;;36.54;26.22
6567;BME280;3317;43.994;22.878;2022-08-04T08:12:40;101023.03;;;36.71;25.59
6567;BME280;3317;43.994;22.878;2022-08-04T08:15:09;101021.41;;;36.79;25.39
6567;BME280;3317;43.994;22.878;2022-08-04T08:17:38;101022.22;;;36.80;25.18
6567;BME280;3317;43.994;22.878;2022-08-04T08:20:06;101019.56;;;36.74;25.98
6567;BME280;3317;43.994;22.878;2022-08-04T08:22:36;101029.94;;;36.56;24.90
6567;BME280;3317;43.994;22.878;2022-08-04T08:25:05;101013.88;;;36.11;24.95
6567;BME280;3317;43.994;22.878;2022-08-04T08:27:32;101021.00;;;36.08;25.42
6567;BME280;3317;43.994;22.878;2022-08-04T08:30:00;101000.06;;;35.87;25.26
6567;BME280;3317;43.994;22.878;2022-08-04T08:32:28;101025.41;;;36.01;25.28
6567;BME280;3317;43.994;22.878;2022-08-04T08:34:55;101020.88;;;36.14;25.70
6567;BME280;3317;43.994;22.878;2022-08-04T08:37:32;101021.63;;;36.28;25.46
6567;BME280;3317;43.994;22.878;2022-08-04T08:40:15;101021.22;;;36.44;25.71
6567;BME280;3317;43.994;22.878;2022-08-04T08:43:15;101028.72;;;36.80;24.37
6567;BME280;3317;43.994;22.878;2022-08-04T08:46:07;100987.38;;;36.84;24.48
6567;BME280;3317;43.994;22.878;2022-08-04T08:49:05;101014.19;;;37.13;23.80
6567;BME280;3317;43.994;22.878;2022-08-04T08:51:54;101014.31;;;36.99;23.99
6567;BME280;3317;43.994;22.878;2022-08-04T08:57:36;101016.03;;;37.27;25.03
6567;BME280;3317;43.994;22.878;2022-08-04T09:00:13;101012.75;;;37.51;23.89
6567;BME280;3317;43.994;22.878;2022-08-04T09:06:06;101013.41;;;37.48;24.80
6567;BME280;3317;43.994;22.878;2022-08-04T09:11:33;100997.47;;;37.79;24.74
6567;BME280;3317;43.994;22.878;2022-08-04T09:14:12;100992.41;;;38.28;23.50
6567;BME280;3317;43.994;22.878;2022-08-04T09:16:48;101006.47;;;38.64;22.71
6567;BME280;3317;43.994;22.878;2022-08-04T09:19:22;101005.66;;;38.84;23.00
6567;BME280;3317;43.994;22.878;2022-08-04T09:21:57;100996.44;;;39.05;22.45
6567;BME280;3317;43.994;22.878;2022-08-04T09:24:33;100988.00;;;38.87;22.25
6567;BME280;3317;43.994;22.878;2022-08-04T09:27:12;100994.34;;;38.84;22.74
6567;BME280;3317;43.994;22.878;2022-08-04T09:29:48;101000.22;;;38.79;22.75
6567;BME280;3317;43.994;22.878;2022-08-04T09:32:25;100980.38;;;38.79;22.53
6567;BME280;3317;43.994;22.878;2022-08-04T09:35:02;100983.22;;;38.79;22.16
6567;BME280;3317;43.994;22.878;2022-08-04T09:37:37;100995.03;;;38.81;22.60
6567;BME280;3317;43.994;22.878;2022-08-04T09:40:13;100988.56;;;38.81;22.36
6567;BME280;3317;43.994;22.878;2022-08-04T09:42:49;100982.69;;;38.86;22.89
6567;BME280;3317;43.994;22.878;2022-08-04T09:45:26;100981.44;;;39.05;22.38
6567;BME280;3317;43.994;22.878;2022-08-04T09:47:57;100987.78;;;39.23;22.38
6567;BME280;3317;43.994;22.878;2022-08-04T09:50:31;100968.81;;;39.23;22.29
6567;BME280;3317;43.994;22.878;2022-08-04T09:53:09;100991.03;;;39.42;21.85
6567;BME280;3317;43.994;22.878;2022-08-04T09:55:48;100970.13;;;39.47;22.10
6567;BME280;3317;43.994;22.878;2022-08-04T09:58:27;100980.84;;;39.63;21.45
6567;BME280;3317;43.994;22.878;2022-08-04T10:01:05;100983.34;;;39.64;21.59
6567;BME280;3317;43.994;22.878;2022-08-04T10:03:35;100982.16;;;39.65;21.60
6567;BME280;3317;43.994;22.878;2022-08-04T10:06:10;100974.22;;;39.37;21.34
6567;BME280;3317;43.994;22.878;2022-08-04T10:09:07;100969.50;;;39.63;21.82
6567;BME280;3317;43.994;22.878;2022-08-04T10:11:52;100954.31;;;39.80;21.66
6567;BME280;3317;43.994;22.878;2022-08-04T10:14:37;100914.41;;;39.30;20.88
6567;BME280;3317;43.994;22.878;2022-08-04T10:17:15;100964.16;;;39.19;21.07
6567;BME280;3317;43.994;22.878;2022-08-04T10:19:55;100957.53;;;38.84;21.85
6567;BME280;3317;43.994;22.878;2022-08-04T10:22:32;100953.84;;;38.63;22.19
6567;BME280;3317;43.994;22.878;2022-08-04T10:25:10;100968.59;;;38.77;22.45
6567;BME280;3317;43.994;22.878;2022-08-04T10:27:44;100937.81;;;38.67;22.01
6567;BME280;3317;43.994;22.878;2022-08-04T10:30:16;100922.13;;;38.48;21.39
6567;BME280;3317;43.994;22.878;2022-08-04T10:32:49;100956.84;;;38.57;22.25
6567;BME280;3317;43.994;22.878;2022-08-04T10:35:21;100952.03;;;38.58;22.57
6567;BME280;3317;43.994;22.878;2022-08-04T10:38:05;100954.84;;;38.88;21.91
6567;BME280;3317;43.994;22.878;2022-08-04T10:40:40;100948.28;;;39.05;21.61
6567;BME280;3317;43.994;22.878;2022-08-04T10:43:32;100942.81;;;39.00;21.23
6567;BME280;3317;43.994;22.878;2022-08-04T10:46:06;100944.75;;;38.78;21.83
6567;BME280;3317;43.994;22.878;2022-08-04T10:48:41;100937.59;;;38.81;21.95
6567;BME280;3317;43.994;22.878;2022-08-04T10:51:22;100937.41;;;39.07;22.17
6567;BME280;3317;43.994;22.878;2022-08-04T10:53:56;100940.63;;;39.27;21.90
6567;BME280;3317;43.994;22.878;2022-08-04T10:56:31;100937.47;;;39.62;21.56
6567;BME280;3317;43.994;22.878;2022-08-04T10:59:03;100935.25;;;39.89;20.93
6567;BME280;3317;43.994;22.878;2022-08-04T11:01:35;100943.19;;;40.08;20.57
6567;BME280;3317;43.994;22.878;2022-08-04T11:04:11;100936.22;;;40.18;20.41
6567;BME280;3317;43.994;22.878;2022-08-04T11:06:42;100927.25;;;40.29;20.64
6567;BME280;3317;43.994;22.878;2022-08-04T11:09:11;100927.28;;;40.53;20.46
6567;BME280;3317;43.994;22.878;2022-08-04T11:11:43;100929.28;;;40.53;19.88
6567;BME280;3317;43.994;22.878;2022-08-04T11:14:16;100903.25;;;40.63;20.36
6567;BME280;3317;43.994;22.878;2022-08-04T11:16:48;100911.84;;;40.92;19.97
6567;BME280;3317;43.994;22.878;2022-08-04T11:19:27;100908.78;;;40.97;19.69
6567;BME280;3317;43.994;22.878;2022-08-04T11:22:03;100910.81;;;40.59;19.18
6567;BME280;3317;43.994;22.878;2022-08-04T11:24:49;100927.88;;;40.34;20.13
6567;BME280;3317;43.994;22.878;2022-08-04T11:27:24;100920.66;;;40.37;20.02
6567;BME280;3317;43.994;22.878;2022-08-04T11:30:00;100909.38;;;40.28;19.55
6567;BME280;3317;43.994;22.878;2022-08-04T11:32:36;100907.78;;;40.39;20.06
6567;BME280;3317;43.994;22.878;2022-08-04T11:35:11;100895.22;;;40.53;20.14
6567;BME280;3317;43.994;22.878;2022-08-04T11:37:45;100915.94;;;40.53;19.61
6567;BME280;3317;43.994;22.878;2022-08-04T11:40:21;100898.41;;;40.51;19.85
6567;BME280;3317;43.994;22.878;2022-08-04T11:42:54;100899.78;;;39.95;19.82
6567;BME280;3317;43.994;22.878;2022-08-04T11:45:30;100894.03;;;39.70;20.10
6567;BME280;3317;43.994;22.878;2022-08-04T11:48:08;100891.47;;;39.44;20.45
6567;BME280;3317;43.994;22.878;2022-08-04T11:50:43;100896.31;;;39.01;20.79
6567;BME280;3317;43.994;22.878;2022-08-04T11:53:20;100867.59;;;38.81;21.26
6567;BME280;3317;43.994;22.878;2022-08-04T11:55:50;100884.00;;;38.97;20.79
6567;BME280;3317;43.994;22.878;2022-08-04T11:58:20;100877.31;;;39.01;21.08
6567;BME280;3317;43.994;22.878;2022-08-04T12:00:57;100873.97;;;39.21;20.94
6567;BME280;3317;43.994;22.878;2022-08-04T12:03:34;100868.22;;;39.29;20.69
6567;BME280;3317;43.994;22.878;2022-08-04T12:06:15;100871.16;;;39.21;20.82
6567;BME280;3317;43.994;22.878;2022-08-04T12:08:57;100865.47;;;39.42;20.80
6567;BME280;3317;43.994;22.878;2022-08-04T12:14:40;100854.88;;;39.51;19.86
6567;BME280;3317;43.994;22.878;2022-08-04T12:17:10;100858.97;;;39.41;20.21
6567;BME280;3317;43.994;22.878;2022-08-04T12:19:45;100868.84;;;39.35;20.24
6567;BME280;3317;43.994;22.878;2022-08-04T12:22:18;100854.31;;;39.37;19.90
6567;BME280;3317;43.994;22.878;2022-08-04T12:24:52;100853.25;;;39.29;19.93
6567;BME280;3317;43.994;22.878;2022-08-04T12:27:23;100848.91;;;39.32;20.44
6567;BME280;3317;43.994;22.878;2022-08-04T12:29:51;100849.50;;;39.37;19.82
6567;BME280;3317;43.994;22.878;2022-08-04T12:32:22;100842.66;;;39.38;19.76
6567;BME280;3317;43.994;22.878;2022-08-04T12:34:58;100843.47;;;39.39;20.08
6567;BME280;3317;43.994;22.878;2022-08-04T12:37:37;100843.16;;;39.40;20.16
6567;BME280;3317;43.994;22.878;2022-08-04T12:40:13;100841.81;;;39.38;19.90
6567;BME280;3317;43.994;22.878;2022-08-04T12:42:46;100833.53;;;39.33;19.40
6567;BME280;3317;43.994;22.878;2022-08-04T12:45:20;100831.94;;;39.23;18.84
6567;BME280;3317;43.994;22.878;2022-08-04T12:47:51;100831.94;;;39.23;19.86
6567;BME280;3317;43.994;22.878;2022-08-04T12:50:19;100828.72;;;39.12;19.16
6567;BME280;3317;43.994;22.878;2022-08-04T12:52:55;100832.03;;;39.14;19.85
6567;BME280;3317;43.994;22.878;2022-08-04T12:55:27;100825.56;;;39.13;19.67
6567;BME280;3317;43.994;22.878;2022-08-04T12:57:56;100820.56;;;39.10;20.10
6567;BME280;3317;43.994;22.878;2022-08-04T13:00:28;100812.63;;;39.04;20.13
6567;BME280;3317;43.994;22.878;2022-08-04T13:03:15;100815.47;;;39.04;20.39
6567;BME280;3317;43.994;22.878;2022-08-04T13:05:44;100817.88;;;38.93;19.92
6567;BME280;3317;43.994;22.878;2022-08-04T13:08:15;100807.88;;;38.74;19.97
6567;BME280;3317;43.994;22.878;2022-08-04T13:10:47;100817.25;;;38.66;19.77
6567;BME280;3317;43.994;22.878;2022-08-04T13:13:16;100816.88;;;38.46;19.47
6567;BME280;3317;43.994;22.878;2022-08-04T13:15:56;100794.56;;;38.23;20.28
6567;BME280;3317;43.994;22.878;2022-08-04T13:18:25;100811.69;;;38.27;20.71
6567;BME280;3317;43.994;22.878;2022-08-04T13:20:53;100797.44;;;38.14;20.72
6567;BME280;3317;43.994;22.878;2022-08-04T13:23:24;100792.84;;;37.92;20.45
6567;BME280;3317;43.994;22.878;2022-08-04T13:25:54;100782.47;;;37.66;20.37
6567;BME280;3317;43.994;22.878;2022-08-04T13:28:25;100800.81;;;37.60;20.79
6567;BME280;3317;43.994;22.878;2022-08-04T13:30:56;100795.16;;;37.60;21.21
6567;BME280;3317;43.994;22.878;2022-08-04T13:33:28;100793.19;;;37.52;20.72
6567;BME280;3317;43.994;22.878;2022-08-04T13:35:57;100781.19;;;37.46;21.13
6567;BME280;3317;43.994;22.878;2022-08-04T13:38:27;100782.03;;;37.46;21.41
6567;BME280;3317;43.994;22.878;2022-08-04T13:40:56;100780.38;;;37.54;21.18
6567;BME280;3317;43.994;22.878;2022-08-04T13:43:28;100781.53;;;37.53;21.20
6567;BME280;3317;43.994;22.878;2022-08-04T13:46:01;100787.19;;;37.44;20.99
6567;BME280;3317;43.994;22.878;2022-08-04T13:48:32;100788.19;;;37.48;20.74
6567;BME280;3317;43.994;22.878;2022-08-04T13:51:02;100781.53;;;37.44;21.10
6567;BME280;3317;43.994;22.878;2022-08-04T13:53:32;100776.28;;;37.25;20.81
6567;BME280;3317;43.994;22.878;2022-08-04T13:56:02;100773.97;;;37.10;20.50
6567;BME280;3317;43.994;22.878;2022-08-04T13:58:33;100784.44;;;37.00;20.95
6567;BME280;3317;43.994;22.878;2022-08-04T14:01:04;100777.28;;;36.85;21.34
6567;BME280;3317;43.994;22.878;2022-08-04T14:03:35;100783.59;;;36.82;21.20
6567;BME280;3317;43.994;22.878;2022-08-04T14:06:13;100775.97;;;36.56;21.12
6567;BME280;3317;43.994;22.878;2022-08-04T14:08:53;100777.09;;;36.46;21.34
6567;BME280;3317;43.994;22.878;2022-08-04T14:11:33;100772.44;;;36.42;21.06
6567;BME280;3317;43.994;22.878;2022-08-04T14:14:12;100767.09;;;36.31;21.08
6567;BME280;3317;43.994;22.878;2022-08-04T14:16:56;100768.25;;;36.21;21.76
6567;BME280;3317;43.994;22.878;2022-08-04T14:19:26;100770.56;;;36.19;21.33
6567;BME280;3317;43.994;22.878;2022-08-04T14:21:53;100765.56;;;36.07;21.73
6567;BME280;3317;43.994;22.878;2022-08-04T14:24:26;100761.22;;;36.01;21.65
6567;BME280;3317;43.994;22.878;2022-08-04T14:26:58;100756.19;;;35.98;22.14
6567;BME280;3317;43.994;22.878;2022-08-04T14:29:35;100763.03;;;36.06;22.03
6567;BME280;3317;43.994;22.878;2022-08-04T14:32:05;100760.84;;;36.03;22.02